createdAt,value
2019-02-04T00:00:30.222Z,12.23
2019-02-04T00:02:59.513Z,11.67
2019-02-04T00:05:27.845Z,15.13
2019-02-04T00:07:56.482Z,16.30
2019-02-04T00:10:25.055Z,11.00
2019-02-04T00:12:53.396Z,11.73
2019-02-04T00:15:21.744Z,10.10
2019-02-04T00:17:50.293Z,13.57
2019-02-04T00:20:18.549Z,14.33
2019-02-04T00:22:46.838Z,16.43
2019-02-04T00:25:15.091Z,14.23
2019-02-04T00:27:43.724Z,11.33
2019-02-04T00:30:20.800Z,13.47
2019-02-04T00:32:49.147Z,11.03
2019-02-04T00:35:17.466Z,14.13
2019-02-04T00:37:46.018Z,13.63
2019-02-04T00:40:19.755Z,12.70
2019-02-04T00:42:48.513Z,14.03
2019-02-04T00:45:16.774Z,13.33
2019-02-04T00:47:45.470Z,11.33
2019-02-04T00:50:16.173Z,13.60
2019-02-04T00:52:44.798Z,10.83
2019-02-04T00:55:13.287Z,11.13
2019-02-04T00:57:42.130Z,12.13
2019-02-04T01:00:26.768Z,11.70
2019-02-04T01:02:55.302Z,11.83
2019-02-04T01:05:23.635Z,10.37
2019-02-04T01:07:52.054Z,10.07
2019-02-04T01:10:31.525Z,11.80
2019-02-04T01:13:00.311Z,13.40
2019-02-04T01:15:28.557Z,13.13
2019-02-04T01:17:57.139Z,10.10
2019-02-04T01:20:28.380Z,12.93
2019-02-04T01:22:57.289Z,16.50
2019-02-04T01:25:26.094Z,13.50
2019-02-04T01:27:54.408Z,10.13
2019-02-04T01:30:23.866Z,10.37
2019-02-04T01:32:52.376Z,15.13
2019-02-04T01:35:21.194Z,11.33
2019-02-04T01:37:49.829Z,10.80
2019-02-04T01:40:23.136Z,11.03
2019-02-04T01:42:51.627Z,11.80
2019-02-04T01:45:20.283Z,12.30
2019-02-04T01:47:48.878Z,13.37
2019-02-04T01:50:19.049Z,13.20
2019-02-04T01:52:47.413Z,11.20
2019-02-04T01:55:16.051Z,11.27
2019-02-04T01:57:46.730Z,11.00
2019-02-04T02:00:18.238Z,10.20
2019-02-04T02:02:46.514Z,13.50
2019-02-04T02:05:15.468Z,14.07
2019-02-04T02:07:43.868Z,10.97
2019-02-04T02:10:15.330Z,12.07
2019-02-04T02:12:43.958Z,17.10
2019-02-04T02:15:12.419Z,13.33
2019-02-04T02:17:41.161Z,9.63
2019-02-04T02:20:12.650Z,13.67
2019-02-04T02:22:41.296Z,12.10
2019-02-04T02:25:09.723Z,13.97
2019-02-04T02:27:38.020Z,14.93
2019-02-04T02:30:12.203Z,12.83
2019-02-04T02:32:41.426Z,13.60
2019-02-04T02:35:11.620Z,11.63
2019-02-04T02:37:39.879Z,13.40
2019-02-04T02:40:17.306Z,11.07
2019-02-04T02:42:45.682Z,11.87
2019-02-04T02:45:14.004Z,11.50
2019-02-04T02:47:42.264Z,14.30
2019-02-04T02:50:12.554Z,14.73
2019-02-04T02:52:40.815Z,12.77
2019-02-04T02:55:11.936Z,13.27
2019-02-04T02:57:40.187Z,15.13
2019-02-04T03:00:11.990Z,11.40
2019-02-04T03:02:40.327Z,10.57
2019-02-04T03:05:11.895Z,12.83
2019-02-04T03:07:40.272Z,10.97
2019-02-04T03:10:11.549Z,11.17
2019-02-04T03:12:39.863Z,11.80
2019-02-04T03:15:10.748Z,13.53
2019-02-04T03:17:51.614Z,16.10
2019-02-04T03:20:11.723Z,11.07
2019-02-04T03:22:40.053Z,13.97
2019-02-04T03:25:10.694Z,14.83
2019-02-04T03:27:39.413Z,12.77
2019-02-04T03:30:29.273Z,14.03
2019-02-04T03:32:57.519Z,12.87
2019-02-04T03:35:26.125Z,14.33
2019-02-04T03:37:54.458Z,10.47
2019-02-04T03:40:28.182Z,15.13
2019-02-04T03:42:56.790Z,16.30
2019-02-04T03:45:25.208Z,11.37
2019-02-04T03:48:04.305Z,14.40
2019-02-04T03:50:23.970Z,13.60
2019-02-04T03:52:52.594Z,14.63
2019-02-04T03:55:20.953Z,13.87
2019-02-04T03:57:49.190Z,14.90
2019-02-04T04:00:23.262Z,13.67
2019-02-04T04:02:51.747Z,14.47
2019-02-04T04:05:20.039Z,12.90
2019-02-04T04:07:48.372Z,13.53
2019-02-04T04:10:16.632Z,12.27
2019-02-04T04:12:45.130Z,12.83
2019-02-04T04:15:14.948Z,12.60
2019-02-04T04:17:43.259Z,18.97
2019-02-04T04:20:14.126Z,13.63
2019-02-04T04:22:42.383Z,13.50
2019-02-04T04:25:12.786Z,13.00
2019-02-04T04:27:41.129Z,15.23
2019-02-04T04:30:18.070Z,15.40
2019-02-04T04:32:46.591Z,18.80
2019-02-04T04:35:15.258Z,12.73
2019-02-04T04:37:43.554Z,13.70
2019-02-04T04:40:14.166Z,13.83
2019-02-04T04:42:42.771Z,12.77
2019-02-04T04:45:19.855Z,13.77
2019-02-04T04:47:48.578Z,16.47
2019-02-04T04:50:17.233Z,14.03
2019-02-04T04:52:45.617Z,19.70
2019-02-04T04:55:22.590Z,13.20
2019-02-04T04:57:51.171Z,17.27
2019-02-04T05:00:28.776Z,22.50
2019-02-04T05:02:57.061Z,16.30
2019-02-04T05:05:25.343Z,12.83
2019-02-04T05:07:53.892Z,16.23
2019-02-04T05:10:22.907Z,15.80
2019-02-04T05:12:51.184Z,13.37
2019-02-04T05:15:25.106Z,15.10
2019-02-04T05:17:53.422Z,14.73
2019-02-04T05:20:22.053Z,15.70
2019-02-04T05:22:50.705Z,13.57
2019-02-04T05:25:18.984Z,14.70
2019-02-04T05:27:47.298Z,10.80
2019-02-04T05:30:20.797Z,17.20
2019-02-04T05:32:49.107Z,16.80
2019-02-04T05:35:17.398Z,13.73
2019-02-04T05:37:46.000Z,16.47
2019-02-04T05:40:17.855Z,14.83
2019-02-04T05:42:46.490Z,18.40
2019-02-04T05:45:19.970Z,12.83
2019-02-04T05:47:48.527Z,15.10
2019-02-04T05:50:18.517Z,13.87
2019-02-04T05:52:47.279Z,14.50
2019-02-04T05:55:16.785Z,13.67
2019-02-04T05:57:45.432Z,17.83
2019-02-04T06:00:26.802Z,14.27
2019-02-04T06:02:55.605Z,16.43
2019-02-04T06:05:23.972Z,21.63
2019-02-04T06:07:52.214Z,17.07
2019-02-04T06:10:20.624Z,20.70
2019-02-04T06:12:48.891Z,21.27
2019-02-04T06:15:17.645Z,22.43
2019-02-04T06:17:46.285Z,24.57
2019-02-04T06:20:17.619Z,19.97
2019-02-04T06:22:45.950Z,20.50
2019-02-04T06:25:14.304Z,20.90
2019-02-04T06:27:42.628Z,19.10
2019-02-04T06:30:13.701Z,19.90
2019-02-04T06:32:42.374Z,16.83
2019-02-04T06:35:11.533Z,16.70
2019-02-04T06:37:40.041Z,19.17
2019-02-04T06:40:17.333Z,19.20
2019-02-04T06:42:45.790Z,25.20
2019-02-04T06:45:18.202Z,17.37
2019-02-04T06:47:46.547Z,17.63
2019-02-04T06:50:19.706Z,19.13
2019-02-04T06:52:51.585Z,13.50
2019-02-04T06:55:25.825Z,18.83
2019-02-04T06:57:54.539Z,18.83
2019-02-04T07:00:22.935Z,18.07
2019-02-04T07:02:51.544Z,23.23
2019-02-04T07:05:20.394Z,17.90
2019-02-04T07:07:48.828Z,16.17
2019-02-04T07:10:27.535Z,18.83
2019-02-04T07:12:56.066Z,16.67
2019-02-04T07:15:24.655Z,16.63
2019-02-04T07:17:53.138Z,22.37
2019-02-04T07:20:23.216Z,20.27
2019-02-04T07:22:51.844Z,17.40
2019-02-04T07:25:20.816Z,16.27
2019-02-04T07:27:49.174Z,17.87
2019-02-04T07:30:23.050Z,15.17
2019-02-04T07:32:51.804Z,15.20
2019-02-04T07:35:20.391Z,16.27
2019-02-04T07:37:53.196Z,15.37
2019-02-04T07:40:30.287Z,19.43
2019-02-04T07:43:00.410Z,14.87
2019-02-04T07:45:31.720Z,17.83
2019-02-04T07:48:01.452Z,18.70
2019-02-04T07:50:29.773Z,22.70
2019-02-04T07:52:58.317Z,17.47
2019-02-04T07:55:26.943Z,20.67
2019-02-04T07:57:57.180Z,18.30
2019-02-04T08:00:30.609Z,18.70
2019-02-04T08:02:59.317Z,21.27
2019-02-04T08:05:27.653Z,20.83
2019-02-04T08:07:56.031Z,22.57
2019-02-04T08:10:24.366Z,22.57
2019-02-04T08:13:01.062Z,20.00
2019-02-04T08:15:25.860Z,20.00
2019-02-04T08:20:29.467Z,18.77
2019-02-04T08:22:57.796Z,25.60
2019-02-04T08:25:26.387Z,20.83
2019-02-04T08:27:55.118Z,23.67
2019-02-04T08:30:31.794Z,19.20
2019-02-04T08:33:00.375Z,19.47
2019-02-04T08:35:28.708Z,17.43
2019-02-04T08:37:57.085Z,18.90
2019-02-04T08:40:25.515Z,20.63
2019-02-04T08:42:54.533Z,20.53
2019-02-04T08:45:22.797Z,18.43
2019-02-04T08:47:51.193Z,22.27
2019-02-04T08:50:22.766Z,15.60
2019-02-04T08:52:51.067Z,17.67
2019-02-04T08:55:19.336Z,18.93
2019-02-04T08:57:47.701Z,17.43
2019-02-04T09:00:21.038Z,18.67
2019-02-04T09:02:49.710Z,19.80
2019-02-04T09:05:19.025Z,16.00
2019-02-04T09:07:47.449Z,20.97
2019-02-04T09:10:21.824Z,16.70
2019-02-04T09:12:50.741Z,20.87
2019-02-04T09:15:19.060Z,21.20
2019-02-04T09:17:47.692Z,19.37
2019-02-04T09:20:17.465Z,17.03
2019-02-04T09:22:46.730Z,18.47
2019-02-04T09:25:17.102Z,17.20
2019-02-04T09:27:45.797Z,16.07
2019-02-04T09:30:16.559Z,18.37
2019-02-04T09:32:45.167Z,15.03
2019-02-04T09:35:18.252Z,18.20
2019-02-04T09:37:46.654Z,20.63
2019-02-04T09:40:20.851Z,17.50
2019-02-04T09:42:49.397Z,17.97
2019-02-04T09:45:18.131Z,20.40
2019-02-04T09:47:46.495Z,15.77
2019-02-04T09:50:21.879Z,17.87
2019-02-04T09:52:47.656Z,18.80
2019-02-04T09:55:18.727Z,15.83
2019-02-04T09:57:47.572Z,16.40
2019-02-04T10:00:21.512Z,13.50
2019-02-04T10:02:49.868Z,18.57
2019-02-04T10:05:18.972Z,14.47
2019-02-04T10:07:47.319Z,16.63
2019-02-04T10:10:23.417Z,15.57
2019-02-04T10:12:52.651Z,15.70
2019-02-04T10:15:27.113Z,16.73
2019-02-04T10:17:56.477Z,18.63
2019-02-04T10:20:33.401Z,18.90
2019-02-04T10:22:54.835Z,20.33
2019-02-04T10:25:26.155Z,20.53
2019-02-04T10:27:54.769Z,19.80
2019-02-04T10:30:24.142Z,18.47
2019-02-04T10:32:52.544Z,17.67
2019-02-04T10:35:21.096Z,19.70
2019-02-04T10:37:50.807Z,17.80
2019-02-04T10:40:21.219Z,16.43
2019-02-04T10:42:49.579Z,16.13
2019-02-04T10:45:19.278Z,17.47
2019-02-04T10:47:47.956Z,21.77
2019-02-04T10:50:25.044Z,21.17
2019-02-04T10:52:53.406Z,17.90
2019-02-04T10:55:21.706Z,18.73
2019-02-04T10:57:50.079Z,24.00
2019-02-04T11:00:25.310Z,18.80
2019-02-04T11:02:53.787Z,17.30
2019-02-04T11:05:27.203Z,24.40
2019-02-04T11:07:55.668Z,16.33
2019-02-04T11:10:25.652Z,19.63
2019-02-04T11:12:54.288Z,20.93
2019-02-04T11:15:25.498Z,21.10
2019-02-04T11:17:53.119Z,17.17
2019-02-04T11:20:28.895Z,20.53
2019-02-04T11:22:57.229Z,18.53
2019-02-04T11:25:25.595Z,22.53
2019-02-04T11:27:53.928Z,14.40
2019-02-04T11:30:28.256Z,20.77
2019-02-04T11:32:59.582Z,19.03
2019-02-04T11:35:27.905Z,18.93
2019-02-04T11:37:56.477Z,17.33
2019-02-04T11:40:33.489Z,16.10
2019-02-04T11:43:01.795Z,16.97
2019-02-04T11:45:30.562Z,16.07
2019-02-04T11:47:59.053Z,16.67
2019-02-04T11:50:27.639Z,17.63
2019-02-04T11:52:56.964Z,30.57
2019-02-04T11:55:25.553Z,18.87
2019-02-04T11:57:53.833Z,18.27
2019-02-04T12:00:30.569Z,20.23
2019-02-04T12:03:00.536Z,19.47
2019-02-04T12:05:29.102Z,17.23
2019-02-04T12:07:57.384Z,13.40
2019-02-04T12:10:31.380Z,17.17
2019-02-04T12:13:00.394Z,14.87
2019-02-04T12:15:28.643Z,14.17
2019-02-04T12:17:56.929Z,16.90
2019-02-04T12:20:25.220Z,17.17
2019-02-04T12:22:53.656Z,15.73
2019-02-04T12:25:26.850Z,16.73
2019-02-04T12:27:56.274Z,14.70
2019-02-04T12:30:42.038Z,15.70
2019-02-04T12:33:13.197Z,12.37
2019-02-04T12:35:41.466Z,14.50
2019-02-04T12:38:09.827Z,11.10
2019-02-04T12:40:38.358Z,14.30
2019-02-04T12:43:06.940Z,14.97
2019-02-04T12:45:37.491Z,11.83
2019-02-04T12:48:05.873Z,18.07
2019-02-04T12:50:34.505Z,13.97
2019-02-04T12:53:03.061Z,13.63
2019-02-04T12:55:32.927Z,12.60
2019-02-04T12:58:01.257Z,11.33
2019-02-04T13:00:30.613Z,13.87
2019-02-04T13:02:59.137Z,15.17
2019-02-04T13:05:33.401Z,10.20
2019-02-04T13:08:01.678Z,11.87
2019-02-04T13:10:30.001Z,12.27
2019-02-04T13:12:58.267Z,15.90
2019-02-04T13:15:26.589Z,14.73
2019-02-04T13:17:54.946Z,13.43
2019-02-04T13:20:23.556Z,15.00
2019-02-04T13:22:51.914Z,14.07
2019-02-04T13:25:25.675Z,16.57
2019-02-04T13:27:54.009Z,13.73
2019-02-04T13:30:24.870Z,14.40
2019-02-04T13:32:53.471Z,14.63
2019-02-04T13:35:21.775Z,12.40
2019-02-04T13:37:50.661Z,20.93
2019-02-04T13:40:21.709Z,11.60
2019-02-04T13:42:50.027Z,18.30
2019-02-04T13:45:19.787Z,11.20
2019-02-04T13:47:48.851Z,14.17
2019-02-04T13:50:18.902Z,12.73
2019-02-04T13:52:47.488Z,11.37
2019-02-04T13:55:36.826Z,12.00
2019-02-04T13:58:05.887Z,11.73
2019-02-04T14:00:34.446Z,12.73
2019-02-04T14:03:03.174Z,15.23
2019-02-04T14:05:31.868Z,10.00
2019-02-04T14:08:00.729Z,8.90
2019-02-04T14:10:37.587Z,7.43
2019-02-04T14:13:06.349Z,7.23
2019-02-04T14:15:35.562Z,9.37
2019-02-04T14:18:04.870Z,9.97
2019-02-04T14:20:33.219Z,8.73
2019-02-04T14:23:01.475Z,7.47
2019-02-04T14:25:29.920Z,7.53
2019-02-04T14:27:58.515Z,11.73
2019-02-04T14:30:32.649Z,12.40
2019-02-04T14:33:01.149Z,10.53
2019-02-04T14:35:29.509Z,7.70
2019-02-04T14:37:57.752Z,6.47
2019-02-04T14:40:26.057Z,10.20
2019-02-04T14:42:59.788Z,11.63
2019-02-04T14:45:36.888Z,6.93
2019-02-04T14:48:08.685Z,9.23
2019-02-04T14:50:40.268Z,8.30
2019-02-04T14:53:14.522Z,8.60
2019-02-04T14:56:01.458Z,9.10
2019-02-04T14:58:33.107Z,8.57
2019-02-04T15:01:25.677Z,9.03
2019-02-04T15:03:57.497Z,8.47
2019-02-04T15:06:45.368Z,10.50
2019-02-04T15:09:42.381Z,8.73
2019-02-04T15:12:19.776Z,8.73
2019-02-04T15:15:09.255Z,7.73
2019-02-04T15:17:40.137Z,8.80
2019-02-04T15:20:11.953Z,11.03
2019-02-04T15:22:49.606Z,9.53
2019-02-04T15:25:36.007Z,8.60
2019-02-04T15:28:22.263Z,9.67
2019-02-04T15:31:03.034Z,8.03
2019-02-04T15:33:46.161Z,11.17
2019-02-04T15:36:45.281Z,9.27
2019-02-04T15:39:31.758Z,9.50
2019-02-04T15:42:03.326Z,8.13
2019-02-04T15:44:34.824Z,10.60
2019-02-04T15:47:06.678Z,8.33
2019-02-04T15:49:50.385Z,7.87
2019-02-04T15:52:13.329Z,10.80
2019-02-04T15:54:41.660Z,12.37
2019-02-04T15:57:10.312Z,10.23
2019-02-04T15:59:38.980Z,11.97
2019-02-04T16:02:07.538Z,12.40
2019-02-04T16:04:36.066Z,12.40
2019-02-04T16:07:06.486Z,11.37
2019-02-04T16:09:34.813Z,10.13
2019-02-04T16:12:03.189Z,12.67
2019-02-04T16:14:31.813Z,9.13
2019-02-04T16:17:00.135Z,11.97
2019-02-04T16:19:28.461Z,12.17
2019-02-04T16:21:56.838Z,14.17
2019-02-04T16:24:25.389Z,12.63
2019-02-04T16:26:53.945Z,13.13
2019-02-04T16:29:22.499Z,12.93
2019-02-04T16:31:50.893Z,11.73
2019-02-04T16:34:19.218Z,13.53
2019-02-04T16:36:47.578Z,9.10
2019-02-04T16:39:16.080Z,12.87
2019-02-04T16:41:44.390Z,16.60
2019-02-04T16:44:12.721Z,12.63
2019-02-04T16:46:41.247Z,16.67
2019-02-04T16:49:09.549Z,14.77
2019-02-04T16:51:38.090Z,13.47
2019-02-04T16:54:06.397Z,11.83
2019-02-04T16:56:34.656Z,16.33
2019-02-04T16:59:02.973Z,11.80
2019-02-04T17:01:31.223Z,13.13
2019-02-04T17:03:59.572Z,13.60
2019-02-04T17:06:27.877Z,10.80
2019-02-04T17:08:56.473Z,15.27
2019-02-04T17:11:24.778Z,11.80
2019-02-04T17:13:53.331Z,12.60
2019-02-04T17:16:21.573Z,11.63
2019-02-04T17:18:50.166Z,15.40
2019-02-04T17:21:18.497Z,12.23
2019-02-04T17:23:46.858Z,9.53
2019-02-04T17:26:15.134Z,19.57
2019-02-04T17:28:43.575Z,18.03
2019-02-04T17:31:11.883Z,15.93
2019-02-04T17:33:40.261Z,10.93
2019-02-04T17:36:08.501Z,13.53
2019-02-04T17:38:36.925Z,11.37
2019-02-04T17:41:05.501Z,12.47
2019-02-04T17:43:34.168Z,11.77
2019-02-04T17:46:02.488Z,14.00
2019-02-04T17:48:30.801Z,10.97
2019-02-04T17:50:59.323Z,9.80
2019-02-04T17:53:34.364Z,13.43
2019-02-04T17:55:58.059Z,15.20
2019-02-04T17:58:26.781Z,12.80
2019-02-04T18:00:55.164Z,10.83
2019-02-04T18:03:23.682Z,15.57
2019-02-04T18:05:52.650Z,13.47
2019-02-04T18:08:20.974Z,16.10
2019-02-04T18:10:49.230Z,24.93
2019-02-04T18:13:17.530Z,20.20
2019-02-04T18:15:46.091Z,17.50
2019-02-04T18:18:14.448Z,23.90
2019-02-04T18:20:42.758Z,19.80
2019-02-04T18:23:11.425Z,20.80
2019-02-04T18:25:39.759Z,18.57
2019-02-04T18:28:08.331Z,19.37
2019-02-04T18:30:36.905Z,26.47
2019-02-04T18:33:05.489Z,19.47
2019-02-04T18:35:34.173Z,15.40
2019-02-04T18:38:02.504Z,17.17
2019-02-04T18:40:30.806Z,22.57
2019-02-04T18:42:59.127Z,16.53
2019-02-04T18:45:34.522Z,15.63
2019-02-04T18:48:03.077Z,16.63
2019-02-04T18:50:31.864Z,17.07
2019-02-04T18:53:00.168Z,15.00
2019-02-04T18:55:34.029Z,18.03
2019-02-04T18:58:02.371Z,16.87
2019-02-04T19:00:32.644Z,16.30
2019-02-04T19:03:02.527Z,13.63
2019-02-04T19:05:31.075Z,12.70
2019-02-04T19:07:59.339Z,12.07
2019-02-04T19:10:27.897Z,12.77
2019-02-04T19:12:56.145Z,12.43
2019-02-04T19:15:26.600Z,19.30
2019-02-04T19:17:57.437Z,12.03
2019-02-04T19:20:25.816Z,10.20
2019-02-04T19:22:54.416Z,12.93
2019-02-04T19:25:22.925Z,12.10
2019-02-04T19:27:52.357Z,11.17
2019-02-04T19:30:35.892Z,11.37
2019-02-04T19:33:04.382Z,11.63
2019-02-04T19:35:32.690Z,11.60
2019-02-04T19:38:01.040Z,12.03
2019-02-04T19:40:29.441Z,12.47
2019-02-04T19:42:57.690Z,14.03
2019-02-04T19:45:27.637Z,16.17
2019-02-04T19:47:55.946Z,19.33
2019-02-04T19:50:35.711Z,16.63
2019-02-04T19:53:04.060Z,23.50
2019-02-04T19:55:34.527Z,20.10
2019-02-04T19:58:03.117Z,20.63
2019-02-04T20:00:32.088Z,21.97
2019-02-04T20:03:00.344Z,34.00
2019-02-04T20:05:32.488Z,18.30
2019-02-04T20:08:00.810Z,17.60
2019-02-04T20:10:31.502Z,14.97
2019-02-04T20:12:59.860Z,18.43
2019-02-04T20:15:29.574Z,16.30
2019-02-04T20:17:57.900Z,14.60
2019-02-04T20:20:26.589Z,13.40
2019-02-04T20:22:55.371Z,16.70
2019-02-04T20:25:31.144Z,15.43
2019-02-04T20:27:59.453Z,16.47
2019-02-04T20:30:45.064Z,17.20
2019-02-04T20:33:06.644Z,19.17
2019-02-04T20:35:35.308Z,20.63
2019-02-04T20:38:04.996Z,19.20
2019-02-04T20:40:33.632Z,22.00
2019-02-04T20:43:02.171Z,16.43
2019-02-04T20:45:30.555Z,15.10
2019-02-04T20:47:58.802Z,19.10
2019-02-04T20:50:32.946Z,15.17
2019-02-04T20:53:01.251Z,21.43
2019-02-04T20:55:29.566Z,16.50
2019-02-04T20:57:58.214Z,17.27
2019-02-04T21:00:30.534Z,15.40
2019-02-04T21:03:01.861Z,14.43
2019-02-04T21:05:29.263Z,22.57
2019-02-04T21:07:57.872Z,20.03
2019-02-04T21:10:30.761Z,23.90
2019-02-04T21:12:59.107Z,21.73
2019-02-04T21:15:27.567Z,19.07
2019-02-04T21:17:55.893Z,19.43
2019-02-04T21:20:26.078Z,15.43
2019-02-04T21:22:54.508Z,18.50
2019-02-04T21:25:22.908Z,19.80
2019-02-04T21:27:51.517Z,15.27
2019-02-04T21:30:24.569Z,15.93
2019-02-04T21:32:52.998Z,16.07
2019-02-04T21:35:21.445Z,17.17
2019-02-04T21:37:49.805Z,19.63
2019-02-04T21:40:19.064Z,19.97
2019-02-04T21:42:47.560Z,14.87
2019-02-04T21:45:18.044Z,17.17
2019-02-04T21:47:46.378Z,16.77
2019-02-04T21:50:19.872Z,17.87
2019-02-04T21:52:48.125Z,15.40
2019-02-04T21:55:16.758Z,15.73
2019-02-04T21:57:45.266Z,17.13
2019-02-04T22:00:22.950Z,14.97
2019-02-04T22:02:51.382Z,18.60
2019-02-04T22:05:22.476Z,15.97
2019-02-04T22:07:50.801Z,22.90
2019-02-04T22:10:24.864Z,20.43
2019-02-04T22:12:53.218Z,18.93
2019-02-04T22:15:21.938Z,22.20
2019-02-04T22:17:50.556Z,30.87
2019-02-04T22:20:19.856Z,24.77
2019-02-04T22:22:48.178Z,23.00
2019-02-04T22:25:21.769Z,23.83
2019-02-04T22:27:50.316Z,24.23
2019-02-04T22:30:27.054Z,20.67
2019-02-04T22:32:55.503Z,21.03
2019-02-04T22:35:23.835Z,20.40
2019-02-04T22:37:52.206Z,19.40
2019-02-04T22:40:22.472Z,17.80
2019-02-04T22:42:50.832Z,18.60
2019-02-04T22:45:19.236Z,17.83
2019-02-04T22:47:47.512Z,21.50
2019-02-04T22:50:21.256Z,24.87
2019-02-04T22:52:49.609Z,27.13
2019-02-04T22:55:18.329Z,23.87
2019-02-04T22:57:46.609Z,26.13
2019-02-04T23:00:51.710Z,24.83
2019-02-04T23:03:26.003Z,20.50
2019-02-04T23:05:54.632Z,33.60
2019-02-04T23:08:23.492Z,21.13
2019-02-04T23:10:52.184Z,24.00
2019-02-04T23:13:20.440Z,21.97
2019-02-04T23:15:48.714Z,20.30
2019-02-04T23:18:17.815Z,19.80
2019-02-04T23:20:46.346Z,17.10
2019-02-04T23:23:14.629Z,19.80
2019-02-04T23:25:43.825Z,16.57
2019-02-04T23:28:12.265Z,15.47
2019-02-04T23:30:40.528Z,19.47
2019-02-04T23:33:08.842Z,17.03
2019-02-04T23:35:37.412Z,15.20
2019-02-04T23:38:06.042Z,14.20
2019-02-04T23:40:34.357Z,16.70
2019-02-04T23:43:02.637Z,17.53
2019-02-04T23:45:31.220Z,14.40
2019-02-04T23:47:59.878Z,13.43
2019-02-04T23:50:28.209Z,17.63
2019-02-04T23:52:56.847Z,15.73
2019-02-04T23:55:25.437Z,15.00
2019-02-04T23:57:53.796Z,13.50
